sensor_id;sensor_type;location;lat;lon;timestamp;P1;durP1;ratioP1;P2;durP2;ratioP2
19231;SDS011;9750;48.730;10.294;2024-02-26T05:29:17;15.97;;;11.37;;
19231;SDS011;9750;48.730;10.294;2024-02-26T05:31:45;16.37;;;12.60;;
19231;SDS011;9750;48.730;10.294;2024-02-26T05:34:12;23.37;;;17.70;;
19231;SDS011;9750;48.730;10.294;2024-02-26T05:36:40;29.93;;;21.17;;
19231;SDS011;9750;48.730;10.294;2024-02-26T05:39:07;18.93;;;14.63;;
19231;SDS011;9750;48.730;10.294;2024-02-26T05:41:37;17.43;;;14.13;;
19231;SDS011;9750;48.730;10.294;2024-02-26T05:44:10;16.50;;;12.70;;
19231;SDS011;9750;48.730;10.294;2024-02-26T05:46:41;15.67;;;12.77;;
19231;SDS011;9750;48.730;10.294;2024-02-26T05:49:09;19.23;;;15.30;;
19231;SDS011;9750;48.730;10.294;2024-02-26T05:51:46;20.67;;;15.23;;
19231;SDS011;9750;48.730;10.294;2024-02-26T05:54:14;24.77;;;16.23;;
19231;SDS011;9750;48.730;10.294;2024-02-26T05:56:44;23.63;;;16.20;;
19231;SDS011;9750;48.730;10.294;2024-02-26T05:59:11;20.73;;;15.47;;
19231;SDS011;9750;48.730;10.294;2024-02-26T06:01:42;20.20;;;16.00;;
19231;SDS011;9750;48.730;10.294;2024-02-26T06:04:16;18.73;;;14.83;;
19231;SDS011;9750;48.730;10.294;2024-02-26T06:07:23;18.60;;;14.33;;
19231;SDS011;9750;48.730;10.294;2024-02-26T06:10:00;19.70;;;14.00;;
19231;SDS011;9750;48.730;10.294;2024-02-26T06:12:35;17.20;;;13.00;;
19231;SDS011;9750;48.730;10.294;2024-02-26T06:15:39;17.53;;;13.97;;
19231;SDS011;9750;48.730;10.294;2024-02-26T06:28:52;13.70;;;10.80;;
19231;SDS011;9750;48.730;10.294;2024-02-26T06:31:20;14.10;;;11.57;;
19231;SDS011;9750;48.730;10.294;2024-02-26T06:33:52;12.77;;;10.37;;
19231;SDS011;9750;48.730;10.294;2024-02-26T06:59:08;15.37;;;12.87;;
19231;SDS011;9750;48.730;10.294;2024-02-26T07:01:46;16.10;;;12.70;;
19231;SDS011;9750;48.730;10.294;2024-02-26T07:04:27;14.93;;;11.77;;
19231;SDS011;9750;48.730;10.294;2024-02-26T07:07:09;16.33;;;13.30;;
19231;SDS011;9750;48.730;10.294;2024-02-26T07:10:03;18.67;;;13.80;;
19231;SDS011;9750;48.730;10.294;2024-02-26T07:12:36;12.80;;;10.20;;
19231;SDS011;9750;48.730;10.294;2024-02-26T07:15:32;11.77;;;9.90;;
19231;SDS011;9750;48.730;10.294;2024-02-26T07:21:06;12.17;;;9.97;;
19231;SDS011;9750;48.730;10.294;2024-02-26T07:23:41;13.70;;;9.77;;
19231;SDS011;9750;48.730;10.294;2024-02-26T07:26:14;13.33;;;11.23;;
19231;SDS011;9750;48.730;10.294;2024-02-26T07:28:44;12.13;;;10.47;;
19231;SDS011;9750;48.730;10.294;2024-02-26T07:31:17;15.13;;;11.83;;
19231;SDS011;9750;48.730;10.294;2024-02-26T07:33:44;15.00;;;11.43;;
19231;SDS011;9750;48.730;10.294;2024-02-26T07:36:12;15.87;;;12.60;;
19231;SDS011;9750;48.730;10.294;2024-02-26T07:38:46;13.70;;;11.13;;
19231;SDS011;9750;48.730;10.294;2024-02-26T07:41:13;14.13;;;12.23;;
19231;SDS011;9750;48.730;10.294;2024-02-26T07:43:41;16.07;;;12.10;;
19231;SDS011;9750;48.730;10.294;2024-02-26T07:52:57;15.10;;;10.67;;
19231;SDS011;9750;48.730;10.294;2024-02-26T07:55:32;14.27;;;11.30;;
19231;SDS011;9750;48.730;10.294;2024-02-26T07:58:22;17.10;;;12.20;;
19231;SDS011;9750;48.730;10.294;2024-02-26T08:01:20;14.57;;;11.57;;
19231;SDS011;9750;48.730;10.294;2024-02-26T08:07:47;15.37;;;11.60;;
19231;SDS011;9750;48.730;10.294;2024-02-26T08:10:17;14.30;;;11.57;;
19231;SDS011;9750;48.730;10.294;2024-02-26T08:12:45;14.63;;;11.73;;
19231;SDS011;9750;48.730;10.294;2024-02-26T08:15:15;16.30;;;12.60;;
19231;SDS011;9750;48.730;10.294;2024-02-26T08:17:45;16.80;;;13.30;;
19231;SDS011;9750;48.730;10.294;2024-02-26T08:20:13;15.50;;;12.00;;
19231;SDS011;9750;48.730;10.294;2024-02-26T08:22:41;14.73;;;12.43;;
19231;SDS011;9750;48.730;10.294;2024-02-26T08:25:09;16.67;;;12.37;;
19231;SDS011;9750;48.730;10.294;2024-02-26T08:27:40;15.33;;;10.67;;
19231;SDS011;9750;48.730;10.294;2024-02-26T08:30:11;14.13;;;11.03;;
19231;SDS011;9750;48.730;10.294;2024-02-26T08:32:59;12.97;;;11.23;;
19231;SDS011;9750;48.730;10.294;2024-02-26T08:35:42;14.70;;;11.47;;
19231;SDS011;9750;48.730;10.294;2024-02-26T08:38:10;13.77;;;11.17;;
19231;SDS011;9750;48.730;10.294;2024-02-26T08:41:16;14.23;;;10.80;;
19231;SDS011;9750;48.730;10.294;2024-02-26T09:22:31;10.03;;;8.47;;
19231;SDS011;9750;48.730;10.294;2024-02-26T09:28:22;11.27;;;8.40;;
19231;SDS011;9750;48.730;10.294;2024-02-26T09:31:19;10.83;;;9.40;;
19231;SDS011;9750;48.730;10.294;2024-02-26T09:33:52;9.50;;;8.43;;
19231;SDS011;9750;48.730;10.294;2024-02-26T09:36:26;11.37;;;9.20;;
19231;SDS011;9750;48.730;10.294;2024-02-26T09:39:01;10.23;;;9.13;;
19231;SDS011;9750;48.730;10.294;2024-02-26T09:41:48;12.30;;;10.43;;
19231;SDS011;9750;48.730;10.294;2024-02-26T09:44:30;6.50;;;5.83;;
19231;SDS011;9750;48.730;10.294;2024-02-26T09:47:08;7.77;;;6.70;;
19231;SDS011;9750;48.730;10.294;2024-02-26T09:49:38;6.80;;;4.87;;
19231;SDS011;9750;48.730;10.294;2024-02-26T09:52:06;4.77;;;4.33;;
19231;SDS011;9750;48.730;10.294;2024-02-26T09:54:35;4.90;;;4.40;;
19231;SDS011;9750;48.730;10.294;2024-02-26T09:57:06;5.53;;;4.80;;
19231;SDS011;9750;48.730;10.294;2024-02-26T09:59:41;7.30;;;6.60;;
19231;SDS011;9750;48.730;10.294;2024-02-26T10:02:12;8.10;;;7.10;;
19231;SDS011;9750;48.730;10.294;2024-02-26T10:04:42;7.50;;;6.73;;
19231;SDS011;9750;48.730;10.294;2024-02-26T10:07:12;7.97;;;7.13;;
19231;SDS011;9750;48.730;10.294;2024-02-26T10:10:19;7.50;;;6.63;;
19231;SDS011;9750;48.730;10.294;2024-02-26T10:12:46;16.23;;;14.67;;
19231;SDS011;9750;48.730;10.294;2024-02-26T10:15:14;10.50;;;6.80;;
19231;SDS011;9750;48.730;10.294;2024-02-26T10:17:41;7.33;;;6.57;;
19231;SDS011;9750;48.730;10.294;2024-02-26T10:20:12;5.20;;;4.47;;
19231;SDS011;9750;48.730;10.294;2024-02-26T10:22:41;7.00;;;5.17;;
19231;SDS011;9750;48.730;10.294;2024-02-26T10:25:08;8.27;;;4.83;;
19231;SDS011;9750;48.730;10.294;2024-02-26T10:27:37;5.70;;;4.90;;
19231;SDS011;9750;48.730;10.294;2024-02-26T10:30:14;5.60;;;4.60;;
19231;SDS011;9750;48.730;10.294;2024-02-26T10:32:44;4.80;;;4.30;;
19231;SDS011;9750;48.730;10.294;2024-02-26T10:35:12;5.37;;;3.77;;
19231;SDS011;9750;48.730;10.294;2024-02-26T10:37:40;4.40;;;4.00;;
19231;SDS011;9750;48.730;10.294;2024-02-26T10:40:09;5.10;;;3.70;;
19231;SDS011;9750;48.730;10.294;2024-02-26T10:42:38;4.60;;;4.10;;
19231;SDS011;9750;48.730;10.294;2024-02-26T10:45:06;4.40;;;4.00;;
19231;SDS011;9750;48.730;10.294;2024-02-26T10:47:35;4.37;;;3.83;;
19231;SDS011;9750;48.730;10.294;2024-02-26T10:50:03;4.63;;;3.93;;
19231;SDS011;9750;48.730;10.294;2024-02-26T10:52:32;5.87;;;4.17;;
19231;SDS011;9750;48.730;10.294;2024-02-26T10:55:00;5.37;;;4.00;;
19231;SDS011;9750;48.730;10.294;2024-02-26T10:57:29;4.00;;;3.60;;
19231;SDS011;9750;48.730;10.294;2024-02-26T11:00:07;4.10;;;3.70;;
19231;SDS011;9750;48.730;10.294;2024-02-26T11:02:37;4.33;;;3.40;;
19231;SDS011;9750;48.730;10.294;2024-02-26T11:05:07;4.20;;;3.20;;
19231;SDS011;9750;48.730;10.294;2024-02-26T11:07:35;4.03;;;3.50;;
19231;SDS011;9750;48.730;10.294;2024-02-26T11:10:03;3.87;;;3.53;;
19231;SDS011;9750;48.730;10.294;2024-02-26T11:12:32;4.33;;;3.20;;
19231;SDS011;9750;48.730;10.294;2024-02-26T11:15:04;5.53;;;3.50;;
19231;SDS011;9750;48.730;10.294;2024-02-26T11:17:32;5.07;;;4.60;;
19231;SDS011;9750;48.730;10.294;2024-02-26T11:20:00;3.93;;;3.53;;
19231;SDS011;9750;48.730;10.294;2024-02-26T11:22:27;4.60;;;3.80;;
19231;SDS011;9750;48.730;10.294;2024-02-26T11:24:55;6.20;;;5.37;;
19231;SDS011;9750;48.730;10.294;2024-02-26T11:27:26;4.00;;;3.60;;
19231;SDS011;9750;48.730;10.294;2024-02-26T11:29:57;4.40;;;4.00;;
19231;SDS011;9750;48.730;10.294;2024-02-26T11:32:29;4.47;;;3.83;;
19231;SDS011;9750;48.730;10.294;2024-02-26T11:34:57;4.70;;;3.40;;
19231;SDS011;9750;48.730;10.294;2024-02-26T11:37:28;4.37;;;3.97;;
19231;SDS011;9750;48.730;10.294;2024-02-26T11:39:56;5.00;;;4.47;;
19231;SDS011;9750;48.730;10.294;2024-02-26T11:42:27;4.43;;;4.03;;
19231;SDS011;9750;48.730;10.294;2024-02-26T11:44:55;4.57;;;3.80;;
19231;SDS011;9750;48.730;10.294;2024-02-26T11:47:26;5.20;;;4.53;;
19231;SDS011;9750;48.730;10.294;2024-02-26T11:49:55;5.90;;;4.13;;
19231;SDS011;9750;48.730;10.294;2024-02-26T11:52:23;4.57;;;4.10;;
19231;SDS011;9750;48.730;10.294;2024-02-26T11:54:56;5.47;;;4.43;;
19231;SDS011;9750;48.730;10.294;2024-02-26T12:01:05;5.90;;;4.70;;
19231;SDS011;9750;48.730;10.294;2024-02-26T12:04:26;5.73;;;4.43;;
19231;SDS011;9750;48.730;10.294;2024-02-26T12:06:57;5.93;;;4.80;;
19231;SDS011;9750;48.730;10.294;2024-02-26T12:09:38;6.20;;;4.93;;
19231;SDS011;9750;48.730;10.294;2024-02-26T12:12:10;6.63;;;4.33;;
19231;SDS011;9750;48.730;10.294;2024-02-26T12:14:50;4.40;;;4.00;;
19231;SDS011;9750;48.730;10.294;2024-02-26T12:17:19;4.70;;;3.20;;
19231;SDS011;9750;48.730;10.294;2024-02-26T12:19:48;3.37;;;2.90;;
19231;SDS011;9750;48.730;10.294;2024-02-26T12:22:15;4.23;;;3.20;;
19231;SDS011;9750;48.730;10.294;2024-02-26T12:24:43;4.33;;;3.93;;
19231;SDS011;9750;48.730;10.294;2024-02-26T12:27:12;4.17;;;3.43;;
19231;SDS011;9750;48.730;10.294;2024-02-26T12:29:40;6.70;;;4.77;;
19231;SDS011;9750;48.730;10.294;2024-02-26T12:32:07;6.20;;;4.70;;
19231;SDS011;9750;48.730;10.294;2024-02-26T12:34:36;6.17;;;5.07;;
19231;SDS011;9750;48.730;10.294;2024-02-26T12:37:05;6.53;;;5.17;;
19231;SDS011;9750;48.730;10.294;2024-02-26T12:39:34;8.03;;;7.17;;
19231;SDS011;9750;48.730;10.294;2024-02-26T12:42:01;7.27;;;6.57;;
19231;SDS011;9750;48.730;10.294;2024-02-26T12:44:29;5.23;;;4.70;;
19231;SDS011;9750;48.730;10.294;2024-02-26T12:47:01;9.57;;;7.50;;
19231;SDS011;9750;48.730;10.294;2024-02-26T12:49:29;8.70;;;6.80;;
19231;SDS011;9750;48.730;10.294;2024-02-26T12:51:56;5.97;;;4.70;;
19231;SDS011;9750;48.730;10.294;2024-02-26T12:54:28;5.10;;;4.60;;
19231;SDS011;9750;48.730;10.294;2024-02-26T12:56:56;7.53;;;5.40;;
19231;SDS011;9750;48.730;10.294;2024-02-26T12:59:24;5.63;;;5.03;;
19231;SDS011;9750;48.730;10.294;2024-02-26T13:01:52;6.47;;;4.97;;
19231;SDS011;9750;48.730;10.294;2024-02-26T13:04:19;6.20;;;5.20;;
19231;SDS011;9750;48.730;10.294;2024-02-26T13:06:46;7.70;;;5.17;;
19231;SDS011;9750;48.730;10.294;2024-02-26T13:09:14;5.70;;;5.07;;
19231;SDS011;9750;48.730;10.294;2024-02-26T13:11:44;11.00;;;8.70;;
19231;SDS011;9750;48.730;10.294;2024-02-26T13:14:18;7.13;;;5.37;;
19231;SDS011;9750;48.730;10.294;2024-02-26T13:16:54;6.23;;;5.53;;
19231;SDS011;9750;48.730;10.294;2024-02-26T13:19:22;9.67;;;6.50;;
19231;SDS011;9750;48.730;10.294;2024-02-26T13:21:49;7.50;;;6.33;;
19231;SDS011;9750;48.730;10.294;2024-02-26T13:24:16;10.13;;;9.07;;
19231;SDS011;9750;48.730;10.294;2024-02-26T13:26:46;16.00;;;9.83;;
19231;SDS011;9750;48.730;10.294;2024-02-26T13:29:17;10.77;;;7.20;;
19231;SDS011;9750;48.730;10.294;2024-02-26T13:31:44;8.90;;;6.70;;
19231;SDS011;9750;48.730;10.294;2024-02-26T13:34:22;18.03;;;11.23;;
19231;SDS011;9750;48.730;10.294;2024-02-26T13:40:07;9.83;;;7.13;;
19231;SDS011;9750;48.730;10.294;2024-02-26T13:42:36;5.77;;;5.07;;
19231;SDS011;9750;48.730;10.294;2024-02-26T13:45:05;6.90;;;5.17;;
19231;SDS011;9750;48.730;10.294;2024-02-26T13:47:33;4.83;;;4.10;;
19231;SDS011;9750;48.730;10.294;2024-02-26T13:50:00;6.07;;;4.60;;
19231;SDS011;9750;48.730;10.294;2024-02-26T13:52:28;12.73;;;8.17;;
19231;SDS011;9750;48.730;10.294;2024-02-26T13:54:57;13.27;;;8.93;;
19231;SDS011;9750;48.730;10.294;2024-02-26T13:57:24;5.97;;;5.13;;
19231;SDS011;9750;48.730;10.294;2024-02-26T13:59:53;5.13;;;4.63;;
19231;SDS011;9750;48.730;10.294;2024-02-26T14:02:21;10.30;;;7.83;;
19231;SDS011;9750;48.730;10.294;2024-02-26T14:04:48;6.17;;;5.00;;
19231;SDS011;9750;48.730;10.294;2024-02-26T14:07:15;6.63;;;5.63;;
19231;SDS011;9750;48.730;10.294;2024-02-26T14:09:42;5.83;;;4.97;;
19231;SDS011;9750;48.730;10.294;2024-02-26T14:12:10;6.47;;;4.27;;
19231;SDS011;9750;48.730;10.294;2024-02-26T14:14:38;9.03;;;5.40;;
19231;SDS011;9750;48.730;10.294;2024-02-26T14:17:09;10.23;;;5.00;;
19231;SDS011;9750;48.730;10.294;2024-02-26T14:19:36;6.50;;;5.13;;
19231;SDS011;9750;48.730;10.294;2024-02-26T14:22:05;41.80;;;34.67;;
19231;SDS011;9750;48.730;10.294;2024-02-26T14:24:32;19.67;;;16.07;;
19231;SDS011;9750;48.730;10.294;2024-02-26T14:27:01;9.43;;;7.50;;
19231;SDS011;9750;48.730;10.294;2024-02-26T14:29:29;8.07;;;6.37;;
19231;SDS011;9750;48.730;10.294;2024-02-26T14:31:56;8.47;;;6.77;;
19231;SDS011;9750;48.730;10.294;2024-02-26T14:34:26;12.00;;;10.70;;
19231;SDS011;9750;48.730;10.294;2024-02-26T14:36:53;5.77;;;5.17;;
19231;SDS011;9750;48.730;10.294;2024-02-26T14:39:21;5.23;;;4.60;;
19231;SDS011;9750;48.730;10.294;2024-02-26T14:41:48;4.70;;;4.23;;
19231;SDS011;9750;48.730;10.294;2024-02-26T14:44:16;5.87;;;4.30;;
19231;SDS011;9750;48.730;10.294;2024-02-26T14:46:43;3.00;;;2.80;;
19231;SDS011;9750;48.730;10.294;2024-02-26T14:49:10;4.70;;;3.70;;
19231;SDS011;9750;48.730;10.294;2024-02-26T14:51:39;6.60;;;5.73;;
19231;SDS011;9750;48.730;10.294;2024-02-26T14:54:06;10.10;;;6.77;;
19231;SDS011;9750;48.730;10.294;2024-02-26T14:56:34;3.87;;;3.10;;
19231;SDS011;9750;48.730;10.294;2024-02-26T14:59:02;6.90;;;3.30;;
19231;SDS011;9750;48.730;10.294;2024-02-26T15:01:30;3.10;;;2.80;;
19231;SDS011;9750;48.730;10.294;2024-02-26T15:03:57;5.00;;;2.83;;
19231;SDS011;9750;48.730;10.294;2024-02-26T15:06:24;10.07;;;3.23;;
19231;SDS011;9750;48.730;10.294;2024-02-26T15:08:53;5.27;;;2.70;;
19231;SDS011;9750;48.730;10.294;2024-02-26T15:11:21;12.60;;;6.20;;
19231;SDS011;9750;48.730;10.294;2024-02-26T15:13:49;6.63;;;5.93;;
19231;SDS011;9750;48.730;10.294;2024-02-26T15:16:25;4.83;;;4.43;;
19231;SDS011;9750;48.730;10.294;2024-02-26T15:18:52;5.63;;;3.93;;
19231;SDS011;9750;48.730;10.294;2024-02-26T15:21:22;6.70;;;5.50;;
19231;SDS011;9750;48.730;10.294;2024-02-26T15:23:50;5.97;;;5.37;;
19231;SDS011;9750;48.730;10.294;2024-02-26T15:26:25;9.53;;;8.57;;
19231;SDS011;9750;48.730;10.294;2024-02-26T15:29:05;8.83;;;6.17;;
19231;SDS011;9750;48.730;10.294;2024-02-26T15:31:34;5.33;;;4.17;;
19231;SDS011;9750;48.730;10.294;2024-02-26T15:34:02;6.07;;;4.07;;
19231;SDS011;9750;48.730;10.294;2024-02-26T15:36:31;4.53;;;4.07;;
19231;SDS011;9750;48.730;10.294;2024-02-26T15:39:07;4.67;;;3.93;;
19231;SDS011;9750;48.730;10.294;2024-02-26T15:45:14;5.03;;;3.23;;
19231;SDS011;9750;48.730;10.294;2024-02-26T15:47:45;4.67;;;2.73;;
19231;SDS011;9750;48.730;10.294;2024-02-26T15:50:35;2.63;;;2.33;;
19231;SDS011;9750;48.730;10.294;2024-02-26T16:04:03;4.40;;;2.97;;
19231;SDS011;9750;48.730;10.294;2024-02-26T16:06:31;3.23;;;2.60;;
19231;SDS011;9750;48.730;10.294;2024-02-26T16:09:01;5.30;;;2.97;;
19231;SDS011;9750;48.730;10.294;2024-02-26T16:11:28;7.60;;;5.97;;
19231;SDS011;9750;48.730;10.294;2024-02-26T16:13:57;6.33;;;4.13;;
19231;SDS011;9750;48.730;10.294;2024-02-26T16:16:50;4.20;;;3.80;;
19231;SDS011;9750;48.730;10.294;2024-02-26T16:22:44;4.20;;;3.70;;
19231;SDS011;9750;48.730;10.294;2024-02-26T16:32:30;4.00;;;2.50;;
19231;SDS011;9750;48.730;10.294;2024-02-26T16:35:23;3.57;;;2.60;;
19231;SDS011;9750;48.730;10.294;2024-02-26T16:38:12;3.10;;;2.63;;
19231;SDS011;9750;48.730;10.294;2024-02-26T16:41:10;4.77;;;2.83;;
19231;SDS011;9750;48.730;10.294;2024-02-26T16:44:29;6.40;;;3.10;;
19231;SDS011;9750;48.730;10.294;2024-02-26T16:47:05;4.00;;;3.57;;
19231;SDS011;9750;48.730;10.294;2024-02-26T16:49:40;6.20;;;3.77;;
19231;SDS011;9750;48.730;10.294;2024-02-26T16:52:10;3.83;;;3.43;;
19231;SDS011;9750;48.730;10.294;2024-02-26T16:57:31;7.93;;;4.10;;
19231;SDS011;9750;48.730;10.294;2024-02-26T16:59:58;4.80;;;3.23;;
19231;SDS011;9750;48.730;10.294;2024-02-26T17:02:25;4.37;;;3.00;;
19231;SDS011;9750;48.730;10.294;2024-02-26T17:04:56;3.53;;;2.93;;
19231;SDS011;9750;48.730;10.294;2024-02-26T17:07:24;4.27;;;3.47;;
19231;SDS011;9750;48.730;10.294;2024-02-26T17:09:51;2.90;;;2.70;;
19231;SDS011;9750;48.730;10.294;2024-02-26T17:12:20;3.00;;;2.70;;
19231;SDS011;9750;48.730;10.294;2024-02-26T17:14:47;4.30;;;3.07;;
19231;SDS011;9750;48.730;10.294;2024-02-26T17:17:16;5.03;;;3.57;;
19231;SDS011;9750;48.730;10.294;2024-02-26T17:19:43;6.73;;;5.17;;
19231;SDS011;9750;48.730;10.294;2024-02-26T17:22:11;7.57;;;4.20;;
19231;SDS011;9750;48.730;10.294;2024-02-26T17:24:39;3.40;;;3.10;;
19231;SDS011;9750;48.730;10.294;2024-02-26T17:27:09;4.17;;;3.30;;
19231;SDS011;9750;48.730;10.294;2024-02-26T17:29:38;2.97;;;2.67;;
19231;SDS011;9750;48.730;10.294;2024-02-26T17:32:05;4.90;;;3.63;;
19231;SDS011;9750;48.730;10.294;2024-02-26T17:34:36;56.53;;;43.07;;
19231;SDS011;9750;48.730;10.294;2024-02-26T17:37:06;65.77;;;44.97;;
19231;SDS011;9750;48.730;10.294;2024-02-26T17:39:38;7.03;;;5.23;;
19231;SDS011;9750;48.730;10.294;2024-02-26T17:42:22;3.33;;;2.87;;
19231;SDS011;9750;48.730;10.294;2024-02-26T17:44:49;3.57;;;3.13;;
19231;SDS011;9750;48.730;10.294;2024-02-26T17:47:17;5.17;;;4.40;;
19231;SDS011;9750;48.730;10.294;2024-02-26T17:49:44;3.83;;;3.40;;
19231;SDS011;9750;48.730;10.294;2024-02-26T17:52:12;5.50;;;4.93;;
19231;SDS011;9750;48.730;10.294;2024-02-26T17:54:39;4.60;;;3.73;;
19231;SDS011;9750;48.730;10.294;2024-02-26T17:57:06;3.70;;;2.97;;
19231;SDS011;9750;48.730;10.294;2024-02-26T17:59:35;4.30;;;2.80;;
19231;SDS011;9750;48.730;10.294;2024-02-26T18:02:07;4.10;;;2.40;;
19231;SDS011;9750;48.730;10.294;2024-02-26T18:06:21;4.23;;;3.27;;
19231;SDS011;9750;48.730;10.294;2024-02-26T18:11:37;16.07;;;10.50;;
19231;SDS011;9750;48.730;10.294;2024-02-26T18:14:04;9.17;;;7.30;;
19231;SDS011;9750;48.730;10.294;2024-02-26T18:16:34;6.17;;;5.63;;
19231;SDS011;9750;48.730;10.294;2024-02-26T18:19:01;3.73;;;3.30;;
19231;SDS011;9750;48.730;10.294;2024-02-26T18:21:34;3.97;;;3.20;;
19231;SDS011;9750;48.730;10.294;2024-02-26T18:24:10;2.90;;;2.53;;
19231;SDS011;9750;48.730;10.294;2024-02-26T18:26:41;2.87;;;2.60;;
19231;SDS011;9750;48.730;10.294;2024-02-26T18:29:16;4.23;;;3.50;;
19231;SDS011;9750;48.730;10.294;2024-02-26T18:31:45;3.47;;;3.17;;
19231;SDS011;9750;48.730;10.294;2024-02-26T18:34:16;5.07;;;3.53;;
19231;SDS011;9750;48.730;10.294;2024-02-26T18:36:52;4.47;;;2.80;;
19231;SDS011;9750;48.730;10.294;2024-02-26T18:39:22;3.00;;;2.70;;
19231;SDS011;9750;48.730;10.294;2024-02-26T18:41:53;2.70;;;2.50;;
19231;SDS011;9750;48.730;10.294;2024-02-26T18:44:22;3.80;;;3.47;;
19231;SDS011;9750;48.730;10.294;2024-02-26T18:46:52;9.47;;;7.53;;
19231;SDS011;9750;48.730;10.294;2024-02-26T18:49:20;4.17;;;2.60;;
19231;SDS011;9750;48.730;10.294;2024-02-26T18:51:50;3.33;;;2.83;;
19231;SDS011;9750;48.730;10.294;2024-02-26T18:59:55;5.50;;;3.83;;
19231;SDS011;9750;48.730;10.294;2024-02-26T19:02:24;5.23;;;3.40;;
19231;SDS011;9750;48.730;10.294;2024-02-26T19:04:53;8.17;;;5.00;;
19231;SDS011;9750;48.730;10.294;2024-02-26T19:07:21;9.77;;;6.70;;
19231;SDS011;9750;48.730;10.294;2024-02-26T19:09:48;15.00;;;9.87;;
19231;SDS011;9750;48.730;10.294;2024-02-26T19:12:17;6.37;;;5.10;;
19231;SDS011;9750;48.730;10.294;2024-02-26T19:14:46;9.23;;;6.53;;
19231;SDS011;9750;48.730;10.294;2024-02-26T19:17:13;16.43;;;12.00;;
19231;SDS011;9750;48.730;10.294;2024-02-26T19:19:43;10.30;;;7.57;;
19231;SDS011;9750;48.730;10.294;2024-02-26T19:22:10;12.27;;;9.93;;
19231;SDS011;9750;48.730;10.294;2024-02-26T19:24:37;14.53;;;11.43;;
19231;SDS011;9750;48.730;10.294;2024-02-26T19:27:05;14.27;;;10.80;;
19231;SDS011;9750;48.730;10.294;2024-02-26T19:29:32;12.07;;;9.60;;
19231;SDS011;9750;48.730;10.294;2024-02-26T19:32:00;11.07;;;8.50;;
19231;SDS011;9750;48.730;10.294;2024-02-26T19:34:28;11.37;;;8.40;;
19231;SDS011;9750;48.730;10.294;2024-02-26T19:36:57;8.17;;;6.60;;
19231;SDS011;9750;48.730;10.294;2024-02-26T19:39:27;8.93;;;6.43;;
19231;SDS011;9750;48.730;10.294;2024-02-26T19:41:54;8.60;;;6.03;;
19231;SDS011;9750;48.730;10.294;2024-02-26T19:44:21;8.10;;;5.77;;
19231;SDS011;9750;48.730;10.294;2024-02-26T19:46:48;7.73;;;5.57;;
19231;SDS011;9750;48.730;10.294;2024-02-26T19:49:16;4.23;;;3.67;;
19231;SDS011;9750;48.730;10.294;2024-02-26T19:51:43;4.60;;;3.87;;
19231;SDS011;9750;48.730;10.294;2024-02-26T19:54:12;3.90;;;3.43;;
19231;SDS011;9750;48.730;10.294;2024-02-26T19:56:40;5.10;;;3.87;;
19231;SDS011;9750;48.730;10.294;2024-02-26T19:59:08;3.97;;;3.43;;
19231;SDS011;9750;48.730;10.294;2024-02-26T20:01:35;3.83;;;3.43;;
19231;SDS011;9750;48.730;10.294;2024-02-26T20:04:03;6.87;;;5.37;;
19231;SDS011;9750;48.730;10.294;2024-02-26T20:06:37;17.43;;;11.57;;
19231;SDS011;9750;48.730;10.294;2024-02-26T20:09:05;24.20;;;14.63;;
19231;SDS011;9750;48.730;10.294;2024-02-26T20:11:34;12.50;;;7.27;;
19231;SDS011;9750;48.730;10.294;2024-02-26T20:14:01;9.93;;;7.20;;
19231;SDS011;9750;48.730;10.294;2024-02-26T20:16:29;13.17;;;8.50;;
19231;SDS011;9750;48.730;10.294;2024-02-26T20:18:56;15.80;;;9.63;;
19231;SDS011;9750;48.730;10.294;2024-02-26T20:21:23;12.97;;;8.43;;
19231;SDS011;9750;48.730;10.294;2024-02-26T20:23:51;18.77;;;11.33;;
19231;SDS011;9750;48.730;10.294;2024-02-26T20:26:18;13.70;;;10.10;;
19231;SDS011;9750;48.730;10.294;2024-02-26T20:28:47;4.77;;;3.33;;
19231;SDS011;9750;48.730;10.294;2024-02-26T20:31:14;5.63;;;4.17;;
19231;SDS011;9750;48.730;10.294;2024-02-26T20:33:41;22.80;;;14.80;;
19231;SDS011;9750;48.730;10.294;2024-02-26T20:36:09;34.33;;;20.33;;
19231;SDS011;9750;48.730;10.294;2024-02-26T20:38:36;49.23;;;26.87;;
19231;SDS011;9750;48.730;10.294;2024-02-26T20:41:04;33.53;;;18.90;;
19231;SDS011;9750;48.730;10.294;2024-02-26T20:43:31;26.90;;;16.13;;
19231;SDS011;9750;48.730;10.294;2024-02-26T20:46:01;28.20;;;17.47;;
19231;SDS011;9750;48.730;10.294;2024-02-26T20:48:30;36.97;;;21.77;;
19231;SDS011;9750;48.730;10.294;2024-02-26T20:50:59;24.47;;;15.77;;
19231;SDS011;9750;48.730;10.294;2024-02-26T20:53:26;33.43;;;18.90;;
19231;SDS011;9750;48.730;10.294;2024-02-26T20:55:57;29.90;;;18.33;;
19231;SDS011;9750;48.730;10.294;2024-02-26T20:58:30;41.03;;;27.43;;
19231;SDS011;9750;48.730;10.294;2024-02-26T21:01:12;23.90;;;17.73;;
19231;SDS011;9750;48.730;10.294;2024-02-26T21:03:39;7.97;;;6.20;;
19231;SDS011;9750;48.730;10.294;2024-02-26T21:06:06;6.93;;;4.70;;
19231;SDS011;9750;48.730;10.294;2024-02-26T21:08:35;5.30;;;4.17;;
19231;SDS011;9750;48.730;10.294;2024-02-26T21:11:02;5.83;;;4.43;;
19231;SDS011;9750;48.730;10.294;2024-02-26T21:13:30;4.80;;;4.03;;
19231;SDS011;9750;48.730;10.294;2024-02-26T21:15:57;5.00;;;3.70;;
19231;SDS011;9750;48.730;10.294;2024-02-26T21:18:26;4.97;;;4.20;;
19231;SDS011;9750;48.730;10.294;2024-02-26T21:20:53;7.50;;;6.57;;
19231;SDS011;9750;48.730;10.294;2024-02-26T21:23:23;4.30;;;3.60;;
19231;SDS011;9750;48.730;10.294;2024-02-26T21:25:50;4.10;;;3.70;;
19231;SDS011;9750;48.730;10.294;2024-02-26T21:28:18;4.53;;;4.13;;
19231;SDS011;9750;48.730;10.294;2024-02-26T21:30:45;4.73;;;3.90;;
19231;SDS011;9750;48.730;10.294;2024-02-26T21:33:12;4.70;;;3.50;;
19231;SDS011;9750;48.730;10.294;2024-02-26T21:35:41;4.20;;;3.47;;
19231;SDS011;9750;48.730;10.294;2024-02-26T21:38:09;5.60;;;3.67;;
19231;SDS011;9750;48.730;10.294;2024-02-26T21:40:37;5.53;;;3.70;;
19231;SDS011;9750;48.730;10.294;2024-02-26T21:43:04;3.60;;;3.30;;
19231;SDS011;9750;48.730;10.294;2024-02-26T21:45:31;4.03;;;3.07;;
19231;SDS011;9750;48.730;10.294;2024-02-26T21:47:59;4.10;;;3.70;;
19231;SDS011;9750;48.730;10.294;2024-02-26T21:50:26;5.13;;;4.17;;
19231;SDS011;9750;48.730;10.294;2024-02-26T21:52:55;5.23;;;4.50;;
19231;SDS011;9750;48.730;10.294;2024-02-26T21:55:22;5.20;;;4.70;;
19231;SDS011;9750;48.730;10.294;2024-02-26T21:57:52;5.67;;;4.53;;
19231;SDS011;9750;48.730;10.294;2024-02-26T22:00:19;5.50;;;4.30;;
19231;SDS011;9750;48.730;10.294;2024-02-26T22:02:50;5.33;;;4.13;;
19231;SDS011;9750;48.730;10.294;2024-02-26T22:05:17;6.07;;;4.83;;
19231;SDS011;9750;48.730;10.294;2024-02-26T22:07:45;4.10;;;3.53;;
19231;SDS011;9750;48.730;10.294;2024-02-26T22:13:40;5.90;;;4.00;;
19231;SDS011;9750;48.730;10.294;2024-02-26T22:16:07;4.63;;;4.07;;
19231;SDS011;9750;48.730;10.294;2024-02-26T22:18:34;5.67;;;4.33;;
19231;SDS011;9750;48.730;10.294;2024-02-26T22:21:02;4.70;;;4.10;;
19231;SDS011;9750;48.730;10.294;2024-02-26T22:23:30;4.50;;;4.10;;
19231;SDS011;9750;48.730;10.294;2024-02-26T22:25:57;5.13;;;4.23;;
19231;SDS011;9750;48.730;10.294;2024-02-26T22:28:25;4.90;;;4.13;;
19231;SDS011;9750;48.730;10.294;2024-02-26T22:30:54;4.30;;;3.90;;
19231;SDS011;9750;48.730;10.294;2024-02-26T22:33:21;5.90;;;4.20;;
19231;SDS011;9750;48.730;10.294;2024-02-26T22:35:49;5.90;;;4.50;;
19231;SDS011;9750;48.730;10.294;2024-02-26T22:38:17;5.20;;;4.00;;
19231;SDS011;9750;48.730;10.294;2024-02-26T22:40:45;4.93;;;4.40;;
19231;SDS011;9750;48.730;10.294;2024-02-26T22:43:12;4.87;;;4.43;;
19231;SDS011;9750;48.730;10.294;2024-02-26T22:45:40;6.03;;;4.57;;
19231;SDS011;9750;48.730;10.294;2024-02-26T22:48:09;5.00;;;4.50;;